GWMSD EGNM-EGCC
Flight info
| Callsign | GWMSD |
|---|---|
| Flight time | 0h 15m |
| Altitude | 8000 |
| Route | NELSA DCT BURNI |
| Aircraft | TBM9/L-SDFGRWY/S |
Departure
| Time | 2026-05-04 14:58 |
|---|---|
| Airport | Leeds Bradford Airport (EGNM) |
Arrival
| Time | 2026-05-04 15:14 |
|---|---|
| Airport | Manchester Airport (EGCC) |
| Time | Latitude | Longitude | Altitude | Speed | Heading |
|---|---|---|---|---|---|
| 2026-05-04 14:47 | 53.86453 | -1.66349 | 660 ft | 0 kts | 307° |
| 2026-05-04 14:55 | 53.86453 | -1.66365 | 660 ft | 4 kts | 232° |
| 2026-05-04 14:55 | 53.86438 | -1.66341 | 660 ft | 5 kts | 79° |
| 2026-05-04 14:55 | 53.86455 | -1.66254 | 661 ft | 11 kts | 54° |
| 2026-05-04 14:56 | 53.86515 | -1.66150 | 661 ft | 13 kts | 47° |
| 2026-05-04 14:56 | 53.86565 | -1.66065 | 662 ft | 9 kts | 53° |
| 2026-05-04 14:56 | 53.86535 | -1.65970 | 661 ft | 16 kts | 139° |
| 2026-05-04 14:56 | 53.86420 | -1.65793 | 666 ft | 28 kts | 137° |
| 2026-05-04 14:57 | 53.86294 | -1.65577 | 673 ft | 18 kts | 118° |
| 2026-05-04 14:57 | 53.86262 | -1.65553 | 674 ft | 6 kts | 318° |
| 2026-05-04 14:57 | 53.86337 | -1.65671 | 669 ft | 37 kts | 317° |
| 2026-05-04 14:57 | 53.86680 | -1.66194 | 661 ft | 93 kts | 319° |
| 2026-05-04 14:58 | 53.87241 | -1.67062 | 803 ft | 121 kts | 317° |
| 2026-05-04 14:58 | 53.87876 | -1.68109 | 1121 ft | 129 kts | 314° |
| 2026-05-04 14:58 | 53.88446 | -1.69212 | 1570 ft | 128 kts | 310° |
| 2026-05-04 14:58 | 53.89014 | -1.70309 | 2109 ft | 120 kts | 309° |
| 2026-05-04 14:59 | 53.89490 | -1.71421 | 2586 ft | 115 kts | 288° |
| 2026-05-04 14:59 | 53.89565 | -1.72737 | 2986 ft | 111 kts | 270° |
| 2026-05-04 14:59 | 53.89626 | -1.75270 | 3775 ft | 105 kts | 272° |
| 2026-05-04 15:00 | 53.89643 | -1.76485 | 4168 ft | 101 kts | 268° |
| 2026-05-04 15:00 | 53.89569 | -1.77616 | 4557 ft | 93 kts | 261° |
| 2026-05-04 15:00 | 53.89426 | -1.78624 | 4926 ft | 84 kts | 253° |
| 2026-05-04 15:01 | 53.88877 | -1.80852 | 5273 ft | 122 kts | 240° |
| 2026-05-04 15:01 | 53.88337 | -1.82112 | 5480 ft | 143 kts | 231° |
| 2026-05-04 15:01 | 53.87657 | -1.83495 | 5693 ft | 163 kts | 232° |
| 2026-05-04 15:01 | 53.86897 | -1.85059 | 5891 ft | 181 kts | 232° |
| 2026-05-04 15:02 | 53.86067 | -1.86756 | 6081 ft | 194 kts | 231° |
| 2026-05-04 15:02 | 53.85178 | -1.88566 | 6266 ft | 205 kts | 232° |
| 2026-05-04 15:02 | 53.84249 | -1.90464 | 6440 ft | 213 kts | 231° |
| 2026-05-04 15:02 | 53.83297 | -1.92411 | 6597 ft | 219 kts | 232° |
| 2026-05-04 15:03 | 53.82336 | -1.94377 | 6752 ft | 222 kts | 232° |
| 2026-05-04 15:03 | 53.81353 | -1.96388 | 6900 ft | 222 kts | 231° |
| 2026-05-04 15:03 | 53.80366 | -1.98401 | 7039 ft | 222 kts | 232° |
| 2026-05-04 15:03 | 53.79378 | -2.00416 | 7047 ft | 228 kts | 232° |
| 2026-05-04 15:04 | 53.78359 | -2.02499 | 7052 ft | 231 kts | 232° |
| 2026-05-04 15:04 | 53.77327 | -2.04610 | 7000 ft | 236 kts | 232° |
| 2026-05-04 15:04 | 53.76254 | -2.06823 | 6629 ft | 250 kts | 232° |
| 2026-05-04 15:04 | 53.74937 | -2.08698 | 6163 ft | 248 kts | 208° |
| 2026-05-04 15:05 | 53.73262 | -2.09280 | 5689 ft | 249 kts | 179° |
| 2026-05-04 15:05 | 53.71563 | -2.08397 | 5227 ft | 267 kts | 152° |
| 2026-05-04 15:05 | 53.70002 | -2.06646 | 5055 ft | 262 kts | 145° |
| 2026-05-04 15:05 | 53.68606 | -2.04953 | 5058 ft | 242 kts | 149° |
| 2026-05-04 15:06 | 53.67007 | -2.04113 | 5061 ft | 244 kts | 175° |
| 2026-05-04 15:06 | 53.65308 | -2.03916 | 5062 ft | 246 kts | 178° |
| 2026-05-04 15:06 | 53.63595 | -2.03779 | 5062 ft | 247 kts | 179° |
| 2026-05-04 15:07 | 53.60129 | -2.03537 | 4892 ft | 255 kts | 179° |
| 2026-05-04 15:07 | 53.58327 | -2.03433 | 4633 ft | 262 kts | 179° |
| 2026-05-04 15:07 | 53.56507 | -2.03305 | 4370 ft | 258 kts | 178° |
| 2026-05-04 15:07 | 53.54733 | -2.03057 | 4107 ft | 259 kts | 176° |
| 2026-05-04 15:08 | 53.52915 | -2.02785 | 3858 ft | 264 kts | 176° |
| 2026-05-04 15:08 | 53.51166 | -2.02525 | 3599 ft | 237 kts | 176° |
| 2026-05-04 15:08 | 53.49573 | -2.02244 | 3507 ft | 225 kts | 175° |
| 2026-05-04 15:08 | 53.48037 | -2.02054 | 3503 ft | 219 kts | 185° |
| 2026-05-04 15:09 | 53.46655 | -2.03001 | 3513 ft | 218 kts | 221° |
| 2026-05-04 15:09 | 53.45846 | -2.05066 | 3411 ft | 201 kts | 249° |
| 2026-05-04 15:09 | 53.45252 | -2.06993 | 3166 ft | 172 kts | 235° |
| 2026-05-04 15:10 | 53.43936 | -2.09843 | 2782 ft | 142 kts | 233° |
| 2026-05-04 15:10 | 53.43346 | -2.11071 | 2581 ft | 132 kts | 231° |
| 2026-05-04 15:10 | 53.42158 | -2.13522 | 2184 ft | 159 kts | 231° |
| 2026-05-04 15:11 | 53.41371 | -2.15149 | 1946 ft | 195 kts | 232° |
| 2026-05-04 15:11 | 53.40593 | -2.16765 | 1728 ft | 156 kts | 231° |
| 2026-05-04 15:11 | 53.39953 | -2.18063 | 1516 ft | 137 kts | 232° |
| 2026-05-04 15:11 | 53.39366 | -2.19285 | 1327 ft | 133 kts | 231° |
| 2026-05-04 15:12 | 53.38786 | -2.20476 | 1139 ft | 131 kts | 231° |
| 2026-05-04 15:12 | 53.38221 | -2.21638 | 954 ft | 126 kts | 231° |
| 2026-05-04 15:12 | 53.37679 | -2.22753 | 783 ft | 124 kts | 231° |
| 2026-05-04 15:12 | 53.37139 | -2.23873 | 619 ft | 123 kts | 231° |
| 2026-05-04 15:13 | 53.36782 | -2.24594 | 493 ft | 119 kts | 229° |
| 2026-05-04 15:13 | 53.36191 | -2.25800 | 327 ft | 107 kts | 231° |
| 2026-05-04 15:13 | 53.35753 | -2.26707 | 268 ft | 95 kts | 230° |
| 2026-05-04 15:13 | 53.35347 | -2.27538 | 238 ft | 89 kts | 230° |
| 2026-05-04 15:14 | 53.35041 | -2.28197 | 227 ft | 48 kts | 236° |
| 2026-05-04 15:14 | 53.34947 | -2.28587 | 224 ft | 26 kts | 259° |
| 2026-05-04 15:14 | 53.34960 | -2.28737 | 223 ft | 6 kts | 321° |
| 2026-05-04 15:14 | 53.35004 | -2.28757 | 222 ft | 8 kts | 42° |
| 2026-05-04 15:15 | 53.35046 | -2.28695 | 223 ft | 8 kts | 51° |
| 2026-05-04 15:15 | 53.35087 | -2.28603 | 224 ft | 15 kts | 48° |
| 2026-05-04 15:15 | 53.35159 | -2.28448 | 222 ft | 18 kts | 49° |
| 2026-05-04 15:16 | 53.35286 | -2.28231 | 227 ft | 15 kts | 30° |
| 2026-05-04 15:16 | 53.35407 | -2.28166 | 230 ft | 13 kts | 4° |
| 2026-05-04 15:16 | 53.35563 | -2.28128 | 231 ft | 5 kts | 15° |
| 2026-05-04 15:17 | 53.35583 | -2.28115 | 231 ft | 4 kts | 18° |
| 2026-05-04 15:17 | 53.35588 | -2.28138 | 231 ft | 0 kts | 171° |